Time;durP1;ratioP1;P1;durP2;ratioP2;P2;SDS_P1;SDS_P2;PMS_P1;PMS_P2;Temp;Humidity;BMP_temperature;BMP_pressure;BME280_temperature;BME280_humidity;BME280_pressure;Samples;Min_cycle;Max_cycle;Signal;HPM_P1;HPM_P2
2024/02/14 00:00:32;;;;;;;;;;;6.20;99.90;;;;;;5035063;28;19975;-77
2024/02/14 00:03:06;;;;;;;;;;;6.10;99.90;;;;;;5001656;28;19924;-77
2024/02/14 00:05:45;;;;;;;;;;;6.30;99.90;;;;;;4998796;28;19917;-76
2024/02/14 00:08:30;;;;;;;;;;;6.30;99.90;;;;;;5002927;28;20246;-77
2024/02/14 00:11:14;;;;;;;;;;;6.20;99.90;;;;;;5001456;28;20404;-77
2024/02/14 00:16:36;;;;;;;;;;;6.40;99.90;;;;;;5034673;28;19925;-77
2024/02/14 00:19:14;;;;;;;;;;;6.50;99.90;;;;;;5035247;28;19948;-77
2024/02/14 00:22:03;;;;;;;;;;;6.40;99.90;;;;;;5026292;28;19925;-77
2024/02/14 00:24:35;;;;;;;;;;;6.30;99.90;;;;;;5015517;28;19956;-77
2024/02/14 00:27:08;;;;;;;;;;;6.50;99.90;;;;;;5011247;28;19913;-77
2024/02/14 00:29:46;;;;;;;;;;;6.60;99.90;;;;;;5017630;28;20396;-77
2024/02/14 00:32:35;;;;;;;;;;;6.60;99.90;;;;;;5000964;28;19923;-77
2024/02/14 00:35:01;;;;;;;;;;;6.60;99.90;;;;;;5032943;28;19975;-77
2024/02/14 00:37:28;;;;;;;;;;;6.60;99.90;;;;;;5033130;28;19917;-77
2024/02/14 00:40:00;;;;;;;;;;;6.60;99.90;;;;;;5033227;28;19932;-77
2024/02/14 00:42:37;;;;;;;;;;;6.70;99.90;;;;;;5002211;28;20058;-77
2024/02/14 00:45:08;;;;;;;;;;;6.60;99.90;;;;;;5001796;28;19913;-77
2024/02/14 00:47:39;;;;;;;;;;;6.60;99.90;;;;;;5017650;28;20245;-77
2024/02/14 00:50:06;;;;;;;;;;;6.60;99.90;;;;;;5033407;28;19920;-77
2024/02/14 00:52:32;;;;;;;;;;;6.60;99.90;;;;;;5033134;28;19924;-77
2024/02/14 00:57:54;;;;;;;;;;;6.60;99.90;;;;;;5026734;28;19921;-77
2024/02/14 01:00:22;;;;;;;;;;;6.60;99.90;;;;;;4997037;28;19932;-77
2024/02/14 01:02:59;;;;;;;;;;;6.60;99.90;;;;;;5021184;28;19917;-77
2024/02/14 01:05:32;;;;;;;;;;;6.50;99.90;;;;;;5031509;28;20024;-77
2024/02/14 01:08:17;;;;;;;;;;;6.60;99.90;;;;;;5009703;28;19913;-77
2024/02/14 01:10:45;;;;;;;;;;;6.60;99.90;;;;;;4999984;28;19920;-77
2024/02/14 01:13:18;;;;;;;;;;;6.70;99.90;;;;;;5000089;28;20020;-77
2024/02/14 01:15:48;;;;;;;;;;;6.60;99.90;;;;;;5016112;28;19927;-77
2024/02/14 01:18:19;;;;;;;;;;;6.60;99.90;;;;;;5016794;28;19943;-77
2024/02/14 01:21:03;;;;;;;;;;;6.70;99.90;;;;;;5019581;28;19960;-77
2024/02/14 01:23:32;;;;;;;;;;;6.70;99.90;;;;;;5013413;28;20484;-77
2024/02/14 01:26:05;;;;;;;;;;;6.70;99.90;;;;;;5007330;28;19917;-76
2024/02/14 01:28:51;;;;;;;;;;;6.70;99.90;;;;;;5038116;28;20007;-77
2024/02/14 01:31:17;;;;;;;;;;;6.70;99.90;;;;;;5036069;28;19928;-77
2024/02/14 01:33:45;;;;;;;;;;;6.70;99.90;;;;;;5003610;28;19917;-76
2024/02/14 01:36:14;;;;;;;;;;;6.70;99.90;;;;;;5017156;28;20012;-77
2024/02/14 01:38:40;;;;;;;;;;;6.70;99.90;;;;;;5000864;28;19924;-77
2024/02/14 01:41:06;;;;;;;;;;;6.70;99.90;;;;;;5002468;28;19917;-77
2024/02/14 01:43:35;;;;;;;;;;;6.70;99.90;;;;;;5033266;28;19913;-77
2024/02/14 01:46:17;;;;;;;;;;;;;;;;;;;;;
2024/02/14 01:48:49;;;;;;;;;;;6.60;99.90;;;;;;5038114;28;20000;-77
2024/02/14 01:51:35;;;;;;;;;;;6.60;99.90;;;;;;5022769;28;19916;-77
2024/02/14 01:54:10;;;;;;;;;;;6.60;99.90;;;;;;5036885;28;20081;-77
2024/02/14 01:56:37;;;;;;;;;;;6.50;99.90;;;;;;5021501;28;19951;-77
2024/02/14 01:59:15;;;;;;;;;;;6.50;99.90;;;;;;5037189;28;19917;-77
2024/02/14 02:01:47;;;;;;;;;;;6.50;99.90;;;;;;5020458;28;19917;-77
2024/02/14 02:04:18;;;;;;;;;;;6.50;99.90;;;;;;5036433;28;20302;-77
2024/02/14 02:06:46;;;;;;;;;;;6.60;99.90;;;;;;5019888;28;19924;-77
2024/02/14 02:09:18;;;;;;;;;;;6.50;99.90;;;;;;5003355;28;19956;-77
2024/02/14 02:12:00;;;;;;;;;;;6.50;99.90;;;;;;5016538;28;20011;-77
2024/02/14 02:14:33;;;;;;;;;;;6.50;99.90;;;;;;4986136;28;19967;-77
2024/02/14 02:17:21;;;;;;;;;;;6.40;99.90;;;;;;5026787;28;20304;-77
2024/02/14 02:19:49;;;;;;;;;;;6.50;99.90;;;;;;5025594;28;19917;-77
2024/02/14 02:22:18;;;;;;;;;;;6.60;99.90;;;;;;5001161;28;19917;-77
2024/02/14 02:24:45;;;;;;;;;;;6.50;99.90;;;;;;5001375;28;19913;-77
2024/02/14 02:27:13;;;;;;;;;;;6.60;99.90;;;;;;5019210;28;20296;-76
2024/02/14 02:29:48;;;;;;;;;;;;;;;;;;;;;
2024/02/14 02:32:16;;;;;;;;;;;6.60;99.90;;;;;;5023158;28;20343;-77
2024/02/14 02:34:50;;;;;;;;;;;6.50;99.90;;;;;;5016566;28;19917;-76
2024/02/14 02:37:40;;;;;;;;;;;6.50;99.90;;;;;;5011648;28;19928;-77
2024/02/14 02:40:09;;;;;;;;;;;6.50;99.90;;;;;;5023511;28;19924;-78
2024/02/14 02:42:38;;;;;;;;;;;6.50;99.90;;;;;;5021038;28;19925;-77
2024/02/14 02:45:07;;;;;;;;;;;6.50;99.90;;;;;;5039248;28;20282;-77
2024/02/14 02:47:32;;;;;;;;;;;6.50;99.90;;;;;;5039461;28;19917;-77
2024/02/14 02:50:01;;;;;;;;;;;6.50;99.90;;;;;;5039189;28;19927;-77
2024/02/14 02:52:27;;;;;;;;;;;6.60;99.90;;;;;;5034527;28;20015;-77
2024/02/14 02:54:56;;;;;;;;;;;6.60;99.90;;;;;;5033682;28;19913;-77
2024/02/14 02:57:22;;;;;;;;;;;6.50;99.90;;;;;;5006415;28;20011;-76
2024/02/14 02:59:50;;;;;;;;;;;6.50;99.90;;;;;;5002934;28;19999;-77
2024/02/14 03:02:42;;;;;;;;;;;6.50;99.90;;;;;;5015283;28;19931;-77
2024/02/14 03:05:18;;;;;;;;;;;6.60;99.90;;;;;;5019118;28;19983;-77
2024/02/14 03:07:48;;;;;;;;;;;6.60;99.90;;;;;;5003098;28;20357;-77
2024/02/14 03:10:24;;;;;;;;;;;6.60;99.90;;;;;;5014076;28;19923;-77
2024/02/14 03:13:11;;;;;;;;;;;6.60;99.90;;;;;;5039962;28;19920;-77
2024/02/14 03:15:39;;;;;;;;;;;6.50;99.90;;;;;;5035387;28;20636;-76
2024/02/14 03:18:14;;;;;;;;;;;6.60;99.90;;;;;;5037521;28;20003;-76
2024/02/14 03:20:42;;;;;;;;;;;6.70;99.90;;;;;;5039438;28;19999;-76
2024/02/14 03:23:15;;;;;;;;;;;6.70;99.90;;;;;;5020541;28;20314;-76
2024/02/14 03:25:40;;;;;;;;;;;6.70;99.90;;;;;;5002739;28;19952;-76
2024/02/14 03:28:08;;;;;;;;;;;6.70;99.90;;;;;;5002526;28;19971;-76
2024/02/14 03:30:43;;;;;;;;;;;6.80;99.90;;;;;;5035004;28;20424;-76
2024/02/14 03:33:15;;;;;;;;;;;6.80;99.90;;;;;;5023176;28;19916;-76
2024/02/14 03:35:43;;;;;;;;;;;6.90;99.90;;;;;;5039264;28;19924;-75
2024/02/14 03:38:11;;;;;;;;;;;6.90;99.90;;;;;;5005061;28;19912;-76
2024/02/14 03:40:57;;;;;;;;;;;6.80;99.90;;;;;;5055626;28;19921;-76
2024/02/14 03:43:23;;;;;;;;;;;6.90;99.90;;;;;;5038198;28;20387;-77
2024/02/14 03:45:50;;;;;;;;;;;6.90;99.90;;;;;;5018084;28;19917;-77
2024/02/14 03:48:18;;;;;;;;;;;7.00;99.90;;;;;;4986506;28;19953;-76
2024/02/14 03:50:48;;;;;;;;;;;6.90;99.90;;;;;;5011418;28;19944;-76
2024/02/14 03:53:17;;;;;;;;;;;7.00;99.90;;;;;;5022267;28;20560;-76
2024/02/14 03:55:45;;;;;;;;;;;7.00;99.90;;;;;;5021010;28;19916;-75
2024/02/14 03:58:13;;;;;;;;;;;6.90;99.90;;;;;;5037364;28;19921;-76
2024/02/14 04:00:39;;;;;;;;;;;6.80;99.90;;;;;;5020962;28;19978;-76
2024/02/14 04:03:06;;;;;;;;;;;7.10;99.90;;;;;;5038402;28;19952;-76
2024/02/14 04:05:37;;;;;;;;;;;7.00;99.90;;;;;;5006740;28;20340;-76
2024/02/14 04:08:09;;;;;;;;;;;7.00;99.90;;;;;;5037451;28;21330;-76
2024/02/14 04:10:36;;;;;;;;;;;7.00;99.90;;;;;;5037385;28;19924;-77
2024/02/14 04:13:06;;;;;;;;;;;7.00;99.90;;;;;;5005957;28;19920;-77
2024/02/14 04:15:32;;;;;;;;;;;7.00;99.90;;;;;;5021948;28;19917;-77
2024/02/14 04:18:02;;;;;;;;;;;7.00;99.90;;;;;;5020997;28;20444;-76
2024/02/14 04:20:31;;;;;;;;;;;6.90;99.90;;;;;;4986720;28;19924;-76
2024/02/14 04:22:59;;;;;;;;;;;6.90;99.90;;;;;;4985911;28;19917;-76
2024/02/14 04:25:25;;;;;;;;;;;6.90;99.90;;;;;;5021049;28;19959;-76
2024/02/14 04:27:51;;;;;;;;;;;7.00;99.90;;;;;;5018009;28;19948;-76
2024/02/14 04:30:17;;;;;;;;;;;6.90;99.90;;;;;;5017458;28;19921;-76
2024/02/14 04:32:45;;;;;;;;;;;6.90;99.90;;;;;;5045419;28;20325;-77
2024/02/14 04:35:15;;;;;;;;;;;6.90;99.90;;;;;;5020816;28;20345;-76
2024/02/14 04:37:44;;;;;;;;;;;6.90;99.90;;;;;;5016387;28;20018;-76
2024/02/14 04:40:12;;;;;;;;;;;6.90;99.90;;;;;;5030355;28;19999;-76
2024/02/14 04:42:38;;;;;;;;;;;6.90;99.90;;;;;;5017484;28;19924;-76
2024/02/14 04:45:07;;;;;;;;;;;6.90;99.90;;;;;;4998781;28;20272;-76
2024/02/14 04:47:39;;;;;;;;;;;6.90;99.90;;;;;;5019224;28;20593;-76
2024/02/14 04:50:05;;;;;;;;;;;6.90;99.90;;;;;;5008391;28;19913;-76
2024/02/14 04:52:36;;;;;;;;;;;6.90;99.90;;;;;;5021172;28;19916;-77
2024/02/14 04:55:19;;;;;;;;;;;6.90;99.90;;;;;;5019738;28;20233;-76
2024/02/14 04:57:45;;;;;;;;;;;6.90;99.90;;;;;;5034717;28;19917;-77
2024/02/14 05:00:11;;;;;;;;;;;6.90;99.90;;;;;;5021053;28;20614;-77
2024/02/14 05:02:42;;;;;;;;;;;6.90;99.90;;;;;;5020665;28;20016;-76
2024/02/14 05:05:13;;;;;;;;;;;6.90;99.90;;;;;;5017105;28;19956;-76
2024/02/14 05:07:42;;;;;;;;;;;7.00;99.90;;;;;;5001390;28;19914;-76
2024/02/14 05:10:08;;;;;;;;;;;6.90;99.90;;;;;;5031524;28;19964;-76
2024/02/14 05:12:34;;;;;;;;;;;7.00;99.90;;;;;;5033478;28;19920;-76
2024/02/14 05:15:04;;;;;;;;;;;7.00;99.90;;;;;;5040447;28;19978;-76
2024/02/14 05:17:41;;;;;;;;;;;7.00;99.90;;;;;;5041637;28;19916;-75
2024/02/14 05:20:13;;;;;;;;;;;7.00;99.90;;;;;;5018077;28;19929;-75
2024/02/14 05:22:39;;;;;;;;;;;7.10;99.90;;;;;;5001479;28;19921;-75
2024/02/14 05:25:07;;;;;;;;;;;7.00;99.90;;;;;;5017547;28;19914;-76
2024/02/14 05:27:33;;;;;;;;;;;7.10;99.90;;;;;;5018391;28;19959;-75
2024/02/14 05:30:05;;;;;;;;;;;7.10;99.90;;;;;;5054025;28;19971;-75
2024/02/14 05:32:37;;;;;;;;;;;7.10;99.90;;;;;;5015351;28;20291;-75
2024/02/14 05:35:05;;;;;;;;;;;7.10;99.90;;;;;;5037956;28;19917;-74
2024/02/14 05:37:32;;;;;;;;;;;7.10;99.90;;;;;;5017334;28;20418;-76
2024/02/14 05:39:58;;;;;;;;;;;7.10;99.90;;;;;;5001802;28;19967;-75
2024/02/14 05:42:27;;;;;;;;;;;7.10;99.90;;;;;;4986480;28;19917;-75
2024/02/14 05:44:53;;;;;;;;;;;7.20;99.90;;;;;;5021327;28;19987;-75
2024/02/14 05:47:25;;;;;;;;;;;7.10;99.90;;;;;;5024647;28;19917;-75
2024/02/14 05:49:53;;;;;;;;;;;7.10;99.90;;;;;;4990718;28;20385;-75
2024/02/14 05:52:22;;;;;;;;;;;7.10;99.90;;;;;;5012681;28;19917;-75
2024/02/14 05:54:54;;;;;;;;;;;7.10;99.90;;;;;;5037350;28;19928;-75
2024/02/14 05:57:22;;;;;;;;;;;7.10;99.90;;;;;;5004237;28;19920;-75
2024/02/14 05:59:51;;;;;;;;;;;7.10;99.90;;;;;;5036188;28;19921;-75
2024/02/14 06:02:22;;;;;;;;;;;7.10;99.90;;;;;;5038611;28;19924;-75
2024/02/14 06:04:47;;;;;;;;;;;7.10;99.90;;;;;;5041125;28;19966;-75
2024/02/14 06:07:15;;;;;;;;;;;7.00;99.90;;;;;;5040670;28;19924;-75
2024/02/14 06:09:44;;;;;;;;;;;7.10;99.90;;;;;;5023837;28;19971;-76
2024/02/14 06:12:15;;;;;;;;;;;7.10;99.90;;;;;;5022659;28;20430;-76
2024/02/14 06:14:40;;;;;;;;;;;7.10;99.90;;;;;;5037825;28;19920;-76
2024/02/14 06:17:06;;;;;;;;;;;7.10;99.90;;;;;;5048351;28;19912;-76
2024/02/14 06:19:33;;;;;;;;;;;7.20;99.90;;;;;;5039977;28;20272;-76
2024/02/14 06:21:59;;;;;;;;;;;7.10;99.90;;;;;;5023174;28;19921;-76
2024/02/14 06:24:25;;;;;;;;;;;7.10;99.90;;;;;;5005828;28;19978;-76
2024/02/14 06:26:50;;;;;;;;;;;7.10;99.90;;;;;;5023234;28;19917;-76
2024/02/14 06:29:16;;;;;;;;;;;7.20;99.90;;;;;;5003644;28;19936;-75
2024/02/14 06:31:42;;;;;;;;;;;7.20;99.90;;;;;;5031396;28;19928;-76
2024/02/14 06:43:39;;;;;;;;;;;7.30;99.90;;;;;;5027188;28;20592;-76
2024/02/14 06:46:05;;;;;;;;;;;7.30;99.90;;;;;;5018297;28;19924;-76
2024/02/14 06:48:31;;;;;;;;;;;7.30;99.90;;;;;;5035703;28;19948;-75
2024/02/14 06:50:58;;;;;;;;;;;7.30;99.90;;;;;;4986434;28;19963;-76
2024/02/14 06:53:24;;;;;;;;;;;7.40;99.90;;;;;;5032897;28;20019;-76
2024/02/14 06:55:52;;;;;;;;;;;7.40;99.90;;;;;;5036813;28;19974;-76
2024/02/14 06:58:18;;;;;;;;;;;7.40;99.90;;;;;;5036008;28;20035;-77
2024/02/14 07:00:44;;;;;;;;;;;7.40;99.90;;;;;;5035742;28;19964;-76
2024/02/14 07:03:10;;;;;;;;;;;7.40;99.90;;;;;;5005913;28;19921;-76
2024/02/14 07:05:36;;;;;;;;;;;7.50;99.90;;;;;;5004376;28;19913;-77
2024/02/14 07:08:02;;;;;;;;;;;7.50;99.90;;;;;;4999213;28;19924;-77
2024/02/14 07:10:30;;;;;;;;;;;7.50;99.90;;;;;;4999352;28;19913;-76
2024/02/14 07:12:59;;;;;;;;;;;7.50;99.90;;;;;;5016359;28;19913;-76
2024/02/14 07:15:28;;;;;;;;;;;7.50;99.90;;;;;;5003169;28;19936;-76
2024/02/14 07:17:55;;;;;;;;;;;7.60;99.90;;;;;;5000439;28;19917;-76
2024/02/14 07:20:25;;;;;;;;;;;7.60;99.90;;;;;;5016498;28;19921;-76
2024/02/14 07:22:53;;;;;;;;;;;7.60;99.90;;;;;;5034111;28;19952;-76
2024/02/14 07:25:22;;;;;;;;;;;7.60;99.90;;;;;;5035815;28;19921;-75
2024/02/14 07:28:12;;;;;;;;;;;7.60;99.90;;;;;;5019020;28;19951;-76
2024/02/14 07:30:52;;;;;;;;;;;7.60;99.90;;;;;;5054658;28;20155;-75
2024/02/14 07:33:20;;;;;;;;;;;7.60;99.90;;;;;;4998981;28;19992;-76
2024/02/14 07:35:49;;;;;;;;;;;7.40;99.90;;;;;;5001131;28;19917;-76
2024/02/14 07:38:34;;;;;;;;;;;7.50;99.90;;;;;;5030659;28;19995;-75
2024/02/14 07:41:03;;;;;;;;;;;7.50;99.90;;;;;;5039149;28;20345;-76
2024/02/14 07:43:29;;;;;;;;;;;7.50;99.90;;;;;;5021650;28;20601;-76
2024/02/14 07:46:07;;;;;;;;;;;7.50;99.90;;;;;;5007076;28;20610;-77
2024/02/14 07:48:33;;;;;;;;;;;7.50;99.90;;;;;;5036743;28;19916;-76
2024/02/14 07:50:59;;;;;;;;;;;7.50;99.90;;;;;;5054600;28;19917;-74
2024/02/14 07:53:29;;;;;;;;;;;7.50;99.90;;;;;;5037892;28;19917;-75
2024/02/14 07:56:22;;;;;;;;;;;7.50;99.90;;;;;;4949604;29;19918;-75
2024/02/14 07:58:49;;;;;;;;;;;7.50;99.90;;;;;;4968739;28;19913;-76
2024/02/14 08:01:19;;;;;;;;;;;7.50;99.90;;;;;;5032465;28;19917;-76
2024/02/14 08:03:50;;;;;;;;;;;7.60;99.90;;;;;;5012735;28;19925;-75
2024/02/14 08:06:21;;;;;;;;;;;7.50;99.90;;;;;;5001181;28;19963;-76
2024/02/14 08:08:51;;;;;;;;;;;7.50;99.90;;;;;;5036992;28;19924;-75
2024/02/14 08:11:17;;;;;;;;;;;7.50;99.90;;;;;;5021194;28;19917;-75
2024/02/14 08:13:45;;;;;;;;;;;7.50;99.90;;;;;;5020176;28;19974;-76
2024/02/14 08:16:13;;;;;;;;;;;7.40;99.90;;;;;;5014970;28;19913;-76
2024/02/14 08:18:43;;;;;;;;;;;7.50;99.90;;;;;;5021191;28;19920;-75
2024/02/14 08:21:12;;;;;;;;;;;7.50;99.90;;;;;;5020983;28;19932;-77
2024/02/14 08:23:41;;;;;;;;;;;7.50;99.90;;;;;;5054350;28;19913;-75
2024/02/14 08:26:10;;;;;;;;;;;7.60;99.90;;;;;;5037324;28;20310;-76
2024/02/14 08:28:41;;;;;;;;;;;7.60;99.90;;;;;;5021287;28;20046;-76
2024/02/14 08:31:11;;;;;;;;;;;7.50;99.90;;;;;;5020510;28;19920;-76
2024/02/14 08:33:37;;;;;;;;;;;7.60;99.90;;;;;;5027231;28;19913;-76
2024/02/14 08:36:06;;;;;;;;;;;7.70;99.90;;;;;;5030970;28;20244;-77
2024/02/14 08:38:35;;;;;;;;;;;7.70;99.90;;;;;;5038361;28;19917;-77
2024/02/14 08:41:02;;;;;;;;;;;7.70;99.90;;;;;;5003683;28;19932;-77
2024/02/14 08:43:28;;;;;;;;;;;7.60;99.90;;;;;;5004317;28;20364;-76
2024/02/14 08:45:54;;;;;;;;;;;7.60;99.90;;;;;;5032110;28;19917;-77
2024/02/14 08:48:21;;;;;;;;;;;7.70;99.90;;;;;;5017285;28;20017;-77
2024/02/14 08:50:50;;;;;;;;;;;7.70;99.90;;;;;;5014691;28;20003;-78
2024/02/14 08:53:15;;;;;;;;;;;7.80;99.90;;;;;;5016000;28;19917;-76
2024/02/14 08:55:41;;;;;;;;;;;7.80;99.90;;;;;;5037001;28;19999;-76
2024/02/14 08:58:09;;;;;;;;;;;7.80;99.90;;;;;;5037151;28;20325;-76
2024/02/14 09:00:41;;;;;;;;;;;7.90;99.90;;;;;;5037343;28;20704;-77
2024/02/14 09:03:07;;;;;;;;;;;7.80;99.90;;;;;;5036809;28;19952;-77
2024/02/14 09:05:37;;;;;;;;;;;7.90;99.90;;;;;;5019989;28;20371;-77
2024/02/14 09:08:03;;;;;;;;;;;7.80;99.90;;;;;;5037258;28;19913;-76
2024/02/14 09:10:29;;;;;;;;;;;8.00;99.90;;;;;;5036440;28;19920;-75
2024/02/14 09:12:54;;;;;;;;;;;7.90;99.90;;;;;;5036568;28;20322;-76
2024/02/14 09:15:23;;;;;;;;;;;7.90;99.90;;;;;;5020442;28;20332;-75
2024/02/14 09:17:49;;;;;;;;;;;7.90;99.90;;;;;;5037082;28;20260;-76
2024/02/14 09:20:20;;;;;;;;;;;7.90;99.90;;;;;;5036682;28;19917;-76
2024/02/14 09:22:46;;;;;;;;;;;7.90;99.90;;;;;;5018518;28;19963;-76
2024/02/14 09:25:13;;;;;;;;;;;7.90;99.90;;;;;;5005795;28;19913;-76
2024/02/14 09:27:43;;;;;;;;;;;8.00;99.90;;;;;;5020264;28;20427;-77
2024/02/14 09:30:10;;;;;;;;;;;8.00;99.90;;;;;;5018848;28;20399;-74
2024/02/14 09:32:39;;;;;;;;;;;8.00;99.90;;;;;;5019931;28;19913;-76
2024/02/14 09:35:07;;;;;;;;;;;8.00;99.90;;;;;;5054150;28;20634;-75
2024/02/14 09:37:32;;;;;;;;;;;8.00;99.90;;;;;;5042939;28;19917;-75
2024/02/14 09:39:58;;;;;;;;;;;8.00;99.90;;;;;;5020828;28;19986;-77
2024/02/14 09:42:28;;;;;;;;;;;8.10;99.90;;;;;;5004204;28;19917;-77
2024/02/14 09:44:58;;;;;;;;;;;8.00;99.90;;;;;;4988706;28;19924;-76
2024/02/14 09:47:24;;;;;;;;;;;8.10;99.90;;;;;;5049232;28;19912;-78
2024/02/14 09:49:50;;;;;;;;;;;8.10;99.90;;;;;;5016561;28;20328;-76
2024/02/14 09:52:16;;;;;;;;;;;8.10;99.90;;;;;;5004593;28;19924;-74
2024/02/14 09:54:42;;;;;;;;;;;8.10;99.90;;;;;;5004397;28;19921;-75
2024/02/14 09:57:07;;;;;;;;;;;8.10;99.90;;;;;;5029517;28;19913;-75
2024/02/14 09:59:33;;;;;;;;;;;8.20;99.90;;;;;;5023608;28;19912;-77
2024/02/14 10:01:59;;;;;;;;;;;8.20;99.90;;;;;;5040487;28;19927;-76
2024/02/14 10:04:25;;;;;;;;;;;8.20;99.90;;;;;;5023732;28;19916;-77
2024/02/14 10:06:53;;;;;;;;;;;8.30;99.90;;;;;;5020371;28;19921;-77
2024/02/14 10:09:22;;;;;;;;;;;8.30;99.90;;;;;;5032806;28;19913;-76
2024/02/14 10:11:48;;;;;;;;;;;8.40;99.90;;;;;;5040157;28;19974;-76
2024/02/14 10:14:16;;;;;;;;;;;8.40;99.90;;;;;;5025798;28;19920;-76
2024/02/14 10:16:45;;;;;;;;;;;8.40;99.90;;;;;;5034493;28;19923;-76
2024/02/14 10:19:17;;;;;;;;;;;8.40;99.90;;;;;;5007292;28;19942;-77
2024/02/14 10:21:43;;;;;;;;;;;8.50;99.90;;;;;;5030228;28;19943;-77
2024/02/14 10:24:10;;;;;;;;;;;8.50;99.90;;;;;;5025273;28;19923;-76
2024/02/14 10:26:37;;;;;;;;;;;8.50;99.90;;;;;;5039007;28;19928;-75
2024/02/14 10:29:03;;;;;;;;;;;8.60;99.90;;;;;;5021451;28;20253;-76
2024/02/14 10:31:33;;;;;;;;;;;8.60;99.90;;;;;;5022991;28;19912;-78
2024/02/14 10:33:59;;;;;;;;;;;8.60;99.90;;;;;;5039537;28;19936;-77
2024/02/14 10:36:25;;;;;;;;;;;8.70;99.90;;;;;;5022231;28;20636;-77
2024/02/14 10:38:57;;;;;;;;;;;8.70;99.90;;;;;;5004873;28;19935;-78
2024/02/14 10:41:25;;;;;;;;;;;8.70;99.90;;;;;;5040099;28;19968;-76
2024/02/14 10:43:51;;;;;;;;;;;8.70;99.90;;;;;;5020586;28;19921;-77
2024/02/14 10:46:22;;;;;;;;;;;8.70;99.90;;;;;;5037424;28;19913;-78
2024/02/14 10:49:03;;;;;;;;;;;8.70;99.90;;;;;;5019550;28;20000;-78
2024/02/14 10:51:30;;;;;;;;;;;8.80;99.90;;;;;;5020206;28;19940;-76
2024/02/14 10:53:58;;;;;;;;;;;8.80;99.90;;;;;;5037247;28;19924;-76
2024/02/14 10:56:24;;;;;;;;;;;8.80;99.90;;;;;;5040163;28;19970;-76
2024/02/14 10:58:50;;;;;;;;;;;9.00;99.90;;;;;;5039220;28;20461;-77
2024/02/14 11:01:17;;;;;;;;;;;8.90;99.90;;;;;;5022891;28;19966;-77
2024/02/14 11:03:47;;;;;;;;;;;9.00;99.90;;;;;;5039656;28;19913;-75
2024/02/14 11:06:19;;;;;;;;;;;9.00;99.90;;;;;;5039118;28;19916;-76
2024/02/14 11:08:55;;;;;;;;;;;9.10;99.90;;;;;;5023515;28;19945;-77
2024/02/14 11:11:23;;;;;;;;;;;9.10;99.90;;;;;;5056383;28;19916;-76
2024/02/14 11:13:53;;;;;;;;;;;9.10;99.90;;;;;;5038833;28;19912;-76
2024/02/14 11:16:22;;;;;;;;;;;9.20;99.90;;;;;;5019074;28;19921;-76
2024/02/14 11:18:49;;;;;;;;;;;9.40;99.90;;;;;;5019931;28;19916;-74
2024/02/14 11:21:18;;;;;;;;;;;9.50;99.90;;;;;;5038806;28;20340;-75
2024/02/14 11:23:56;;;;;;;;;;;9.60;99.90;;;;;;5021969;28;19916;-75
2024/02/14 11:26:23;;;;;;;;;;;9.60;99.90;;;;;;5022351;28;19916;-76
2024/02/14 11:28:49;;;;;;;;;;;9.80;99.90;;;;;;5004743;28;19916;-74
2024/02/14 11:31:18;;;;;;;;;;;9.80;99.90;;;;;;5055355;28;19935;-75
2024/02/14 11:33:46;;;;;;;;;;;9.90;99.90;;;;;;5022010;28;19916;-73
2024/02/14 11:36:14;;;;;;;;;;;9.90;99.90;;;;;;5024790;28;19912;-77
2024/02/14 11:38:41;;;;;;;;;;;9.90;99.90;;;;;;5039960;28;19932;-78
2024/02/14 11:41:06;;;;;;;;;;;10.00;99.90;;;;;;5038031;28;19921;-76
2024/02/14 11:43:32;;;;;;;;;;;10.00;99.90;;;;;;5023589;28;19924;-76
2024/02/14 11:45:59;;;;;;;;;;;10.00;99.90;;;;;;5000337;28;19967;-76
2024/02/14 11:48:25;;;;;;;;;;;10.00;99.90;;;;;;5004561;28;19956;-75
2024/02/14 11:50:55;;;;;;;;;;;9.90;99.90;;;;;;5024915;28;19917;-74
2024/02/14 11:53:24;;;;;;;;;;;10.00;99.90;;;;;;5005370;28;20012;-77
2024/02/14 11:55:55;;;;;;;;;;;10.00;99.90;;;;;;5021709;28;19917;-76
2024/02/14 11:58:25;;;;;;;;;;;10.00;99.90;;;;;;5037749;28;19952;-77
2024/02/14 12:00:54;;;;;;;;;;;10.00;99.90;;;;;;5021607;28;19931;-76
2024/02/14 12:03:20;;;;;;;;;;;10.00;99.90;;;;;;5021460;28;19917;-77
2024/02/14 12:05:52;;;;;;;;;;;10.00;99.90;;;;;;5055157;28;19916;-77
2024/02/14 12:08:21;;;;;;;;;;;10.00;99.90;;;;;;5021293;28;19917;-76
2024/02/14 12:10:50;;;;;;;;;;;10.10;99.90;;;;;;5037244;28;19916;-78
2024/02/14 12:13:21;;;;;;;;;;;10.00;99.90;;;;;;5005393;28;19923;-76
2024/02/14 12:15:48;;;;;;;;;;;10.10;99.90;;;;;;5037261;28;20316;-77
2024/02/14 12:18:14;;;;;;;;;;;10.20;99.90;;;;;;5037568;28;19912;-76
2024/02/14 12:20:43;;;;;;;;;;;10.20;99.90;;;;;;5020965;28;19931;-75
2024/02/14 12:23:18;;;;;;;;;;;10.30;99.90;;;;;;5037489;28;19916;-77
2024/02/14 12:25:47;;;;;;;;;;;10.30;99.90;;;;;;5021348;28;19967;-78
2024/02/14 12:28:20;;;;;;;;;;;10.30;99.90;;;;;;5005598;28;19978;-76
2024/02/14 12:30:46;;;;;;;;;;;10.30;99.90;;;;;;5020953;28;19951;-75
2024/02/14 12:33:25;;;;;;;;;;;10.30;99.90;;;;;;5037817;28;19917;-77
2024/02/14 12:35:51;;;;;;;;;;;10.30;99.90;;;;;;5021020;28;19925;-76
2024/02/14 12:38:18;;;;;;;;;;;10.30;99.90;;;;;;5021109;28;20223;-77
2024/02/14 12:40:44;;;;;;;;;;;10.30;99.90;;;;;;5035445;28;19947;-76
2024/02/14 12:43:10;;;;;;;;;;;10.30;99.90;;;;;;5018552;28;20610;-76
2024/02/14 12:45:39;;;;;;;;;;;10.30;99.90;;;;;;5004610;28;20499;-80
2024/02/14 12:48:08;;;;;;;;;;;10.30;99.90;;;;;;5037951;28;19923;-80
2024/02/14 12:50:34;;;;;;;;;;;10.30;99.90;;;;;;5017565;28;20003;-80
2024/02/14 12:53:10;;;;;;;;;;;10.30;99.90;;;;;;5020782;28;19963;-81
2024/02/14 12:55:35;;;;;;;;;;;10.30;99.90;;;;;;5021048;28;19919;-80
2024/02/14 12:58:01;;;;;;;;;;;10.40;99.90;;;;;;5021187;28;19999;-79
2024/02/14 13:00:27;;;;;;;;;;;10.30;99.90;;;;;;5030639;28;19925;-80
2024/02/14 13:02:56;;;;;;;;;;;10.40;99.90;;;;;;5019699;28;19913;-80
2024/02/14 13:05:22;;;;;;;;;;;10.40;99.90;;;;;;5036070;28;19967;-79
2024/02/14 13:07:47;;;;;;;;;;;10.30;99.90;;;;;;5018400;28;19916;-80
2024/02/14 13:10:14;;;;;;;;;;;10.40;99.90;;;;;;5019735;28;19959;-80
2024/02/14 13:12:39;;;;;;;;;;;10.40;99.90;;;;;;5020626;28;19970;-78
2024/02/14 13:15:06;;;;;;;;;;;10.40;99.90;;;;;;5020821;28;20359;-80
2024/02/14 13:17:34;;;;;;;;;;;10.40;99.90;;;;;;5020991;28;19916;-81
2024/02/14 13:20:01;;;;;;;;;;;10.40;99.90;;;;;;5017852;28;19943;-81
2024/02/14 13:22:29;;;;;;;;;;;10.40;99.90;;;;;;5022369;28;19913;-81
2024/02/14 13:24:56;;;;;;;;;;;10.40;99.90;;;;;;5021401;28;19917;-80
2024/02/14 13:27:23;;;;;;;;;;;10.40;99.90;;;;;;5021730;28;19928;-81
2024/02/14 13:29:48;;;;;;;;;;;10.40;99.90;;;;;;5021459;28;20383;-81
2024/02/14 13:32:15;;;;;;;;;;;10.40;99.90;;;;;;5037210;28;19920;-80
2024/02/14 13:34:43;;;;;;;;;;;10.40;99.90;;;;;;5002875;28;19947;-80
2024/02/14 13:37:12;;;;;;;;;;;10.40;99.90;;;;;;5021314;28;20008;-80
2024/02/14 13:39:39;;;;;;;;;;;10.40;99.90;;;;;;5020408;28;19974;-81
2024/02/14 13:42:07;;;;;;;;;;;10.40;99.90;;;;;;5020847;28;20646;-81
2024/02/14 13:44:34;;;;;;;;;;;10.50;99.90;;;;;;5019130;28;20028;-79
2024/02/14 13:47:01;;;;;;;;;;;10.50;99.90;;;;;;5008908;28;19920;-80
2024/02/14 13:49:27;;;;;;;;;;;10.50;99.90;;;;;;5026667;28;19913;-80
2024/02/14 13:51:54;;;;;;;;;;;10.50;99.90;;;;;;5017080;28;19995;-80
2024/02/14 13:54:20;;;;;;;;;;;10.50;99.90;;;;;;5037128;28;19987;-79
2024/02/14 13:56:48;;;;;;;;;;;10.50;99.90;;;;;;5034391;28;19952;-80
2024/02/14 13:59:18;;;;;;;;;;;10.50;99.90;;;;;;5016474;28;19914;-80
2024/02/14 14:01:45;;;;;;;;;;;10.50;99.90;;;;;;5008835;28;19915;-83
2024/02/14 14:04:14;;;;;;;;;;;10.60;99.90;;;;;;5009204;28;19908;-83
2024/02/14 14:06:40;;;;;;;;;;;10.60;99.90;;;;;;5040899;28;19901;-84
2024/02/14 14:09:16;;;;;;;;;;;10.70;99.90;;;;;;5024839;28;19901;-80
2024/02/14 14:11:46;;;;;;;;;;;10.70;99.90;;;;;;5053309;28;19925;-83
2024/02/14 14:14:20;;;;;;;;;;;10.80;99.90;;;;;;5024498;28;19908;-83
2024/02/14 14:19:36;;;;;;;;;;;10.60;99.90;;;;;;5064040;28;19931;-80
2024/02/14 14:22:02;;;;;;;;;;;10.50;99.90;;;;;;5064256;28;19916;-81
2024/02/14 14:24:31;;;;;;;;;;;10.50;99.90;;;;;;5058442;28;19968;-81
2024/02/14 14:26:56;;;;;;;;;;;10.40;99.90;;;;;;5044785;28;19921;-80
2024/02/14 14:29:22;;;;;;;;;;;10.40;99.90;;;;;;5042234;28;20397;-80
2024/02/14 14:31:48;;;;;;;;;;;10.40;99.90;;;;;;5057940;28;19967;-81
2024/02/14 14:34:14;;;;;;;;;;;10.40;99.90;;;;;;5055108;28;19928;-80
2024/02/14 14:36:41;;;;;;;;;;;10.40;99.90;;;;;;5064042;28;19923;-80
2024/02/14 14:39:06;;;;;;;;;;;10.40;99.90;;;;;;5043090;28;19916;-80
2024/02/14 14:41:35;;;;;;;;;;;10.40;99.90;;;;;;5014090;28;19936;-81
2024/02/14 14:44:04;;;;;;;;;;;10.40;99.90;;;;;;5072625;28;19917;-79
2024/02/14 14:46:31;;;;;;;;;;;10.40;99.90;;;;;;5037156;28;20067;-80
2024/02/14 14:48:59;;;;;;;;;;;10.40;99.90;;;;;;5057458;28;19916;-80
2024/02/14 14:51:25;;;;;;;;;;;10.40;99.90;;;;;;5042899;28;19917;-78
2024/02/14 14:53:51;;;;;;;;;;;10.40;99.90;;;;;;5072986;28;19912;-79
2024/02/14 14:56:16;;;;;;;;;;;10.50;99.90;;;;;;5051036;28;19942;-80
2024/02/14 14:58:43;;;;;;;;;;;10.40;99.90;;;;;;5059126;28;19916;-80